createdAt,value
2018-07-13T00:01:44.578Z,82.40
2018-07-13T00:04:11.909Z,80.69
2018-07-13T00:06:39.824Z,81.01
2018-07-13T00:09:08.621Z,82.35
2018-07-13T00:11:36.112Z,80.87
2018-07-13T00:14:11.289Z,82.58
2018-07-13T00:16:38.639Z,81.14
2018-07-13T00:19:05.992Z,81.80
2018-07-13T00:21:33.577Z,80.75
2018-07-13T00:24:01.187Z,82.58
2018-07-13T00:26:28.410Z,82.22
2018-07-13T00:28:55.816Z,81.32
2018-07-13T00:31:23.097Z,81.72
2018-07-13T00:33:50.344Z,81.00
2018-07-13T00:36:17.600Z,81.65
2018-07-13T00:38:45.229Z,80.14
2018-07-13T00:41:12.466Z,82.24
2018-07-13T00:43:39.731Z,80.60
2018-07-13T00:46:07.141Z,82.77
2018-07-13T00:48:34.711Z,80.33
2018-07-13T00:51:02.014Z,82.12
2018-07-13T00:53:29.285Z,82.07
2018-07-13T00:55:56.765Z,83.00
2018-07-13T00:58:24.029Z,81.70
2018-07-13T01:00:51.292Z,82.57
2018-07-13T01:03:18.593Z,82.98
2018-07-13T01:05:46.282Z,82.51
2018-07-13T01:08:13.677Z,82.47
2018-07-13T01:10:40.918Z,83.07
2018-07-13T01:13:08.411Z,81.95
2018-07-13T01:15:35.776Z,81.65
2018-07-13T01:18:03.226Z,81.87
2018-07-13T01:20:30.444Z,83.72
2018-07-13T01:22:57.681Z,82.54
2018-07-13T01:25:24.962Z,83.22
2018-07-13T01:27:52.268Z,83.45
2018-07-13T01:30:19.541Z,81.06
2018-07-13T01:32:46.852Z,82.80
2018-07-13T01:35:14.325Z,81.71
2018-07-13T01:37:41.678Z,81.79
2018-07-13T01:40:09.363Z,82.34
2018-07-13T01:42:36.637Z,81.77
2018-07-13T01:45:04.389Z,83.15
2018-07-13T01:47:32.015Z,83.25
2018-07-13T01:49:59.294Z,82.58
2018-07-13T01:52:26.665Z,81.98
2018-07-13T01:54:53.893Z,81.33
2018-07-13T01:57:21.201Z,80.43
2018-07-13T01:59:48.853Z,80.82
2018-07-13T02:02:16.205Z,81.39
2018-07-13T02:04:43.501Z,83.81
2018-07-13T02:07:10.747Z,81.99
2018-07-13T02:09:38.028Z,83.96
2018-07-13T02:12:05.635Z,84.30
2018-07-13T02:14:33.359Z,82.79
2018-07-13T02:17:00.698Z,83.04
2018-07-13T02:19:28.019Z,81.73
2018-07-13T02:21:55.443Z,82.70
2018-07-13T02:24:22.947Z,83.07
2018-07-13T02:26:50.193Z,81.39
2018-07-13T02:29:17.436Z,82.43
2018-07-13T02:31:44.683Z,83.35
2018-07-13T02:34:11.938Z,81.80
2018-07-13T11:11:55.327Z,44.18
2018-07-13T11:14:22.916Z,45.11
2018-07-13T11:16:50.167Z,44.33
2018-07-13T11:19:17.416Z,42.97
2018-07-13T11:21:45.233Z,42.95
2018-07-13T11:24:12.487Z,43.25
2018-07-13T11:26:39.922Z,45.02
2018-07-13T11:29:07.115Z,46.94
2018-07-13T11:31:34.334Z,45.16
2018-07-13T11:34:01.629Z,43.54
2018-07-13T11:36:28.825Z,43.64
2018-07-13T11:38:56.054Z,43.64
2018-07-13T11:41:23.281Z,42.29
2018-07-13T11:43:50.518Z,42.91
2018-07-13T11:46:19.959Z,42.67
2018-07-13T11:48:47.294Z,41.57
2018-07-13T11:51:14.645Z,41.93
2018-07-13T11:53:42.650Z,40.78
2018-07-13T11:56:10.774Z,39.08
2018-07-13T11:58:38.025Z,41.09
2018-07-13T12:01:05.633Z,39.90
2018-07-13T12:03:32.939Z,39.09
2018-07-13T12:06:00.182Z,40.99
2018-07-13T12:08:27.438Z,40.18
2018-07-13T12:10:54.708Z,39.73
2018-07-13T12:13:21.955Z,38.64
2018-07-13T12:15:49.267Z,39.69
2018-07-13T12:18:16.634Z,39.59
2018-07-13T12:20:43.966Z,39.94
2018-07-13T12:23:11.235Z,40.12
2018-07-13T12:25:38.482Z,40.32
2018-07-13T12:28:05.740Z,39.17
2018-07-13T12:30:32.977Z,40.10
2018-07-13T12:33:00.357Z,40.55
2018-07-13T12:35:27.625Z,40.24
2018-07-13T12:37:54.889Z,40.38
2018-07-13T12:40:22.196Z,42.38
2018-07-13T12:42:49.571Z,41.52
2018-07-13T12:45:16.888Z,42.68
2018-07-13T12:47:44.344Z,42.65
2018-07-13T12:50:11.774Z,42.93
2018-07-13T12:52:39.014Z,44.35
2018-07-13T12:55:06.382Z,43.93
2018-07-13T12:57:34.697Z,42.91
2018-07-13T13:00:02.688Z,43.60
2018-07-13T13:02:30.968Z,43.56
2018-07-13T13:04:58.566Z,43.12
2018-07-13T13:07:26.081Z,43.55
2018-07-13T13:09:53.599Z,43.61
2018-07-13T13:12:21.179Z,43.25
2018-07-13T13:14:48.434Z,44.72
2018-07-13T13:17:16.365Z,43.18
2018-07-13T13:19:43.676Z,44.44
2018-07-13T13:22:11.297Z,43.28
2018-07-13T13:24:38.969Z,44.89
2018-07-13T13:27:06.254Z,44.64
2018-07-13T13:29:33.615Z,45.31
2018-07-13T13:32:01.399Z,45.08
2018-07-13T13:34:28.810Z,45.60
2018-07-13T13:36:57.276Z,46.30
2018-07-13T13:39:25.093Z,45.87
2018-07-13T13:41:52.464Z,46.31
2018-07-13T13:44:20.689Z,47.20
2018-07-13T13:46:48.003Z,47.75
2018-07-13T13:49:15.419Z,45.66
2018-07-13T13:51:42.814Z,46.98
2018-07-13T13:54:10.127Z,46.29
2018-07-13T13:56:37.596Z,46.83
2018-07-13T13:59:05.354Z,46.13
2018-07-13T14:01:32.813Z,47.70
2018-07-13T14:04:00.152Z,47.37
2018-07-13T14:06:27.593Z,47.26
2018-07-13T14:08:55.254Z,47.41
2018-07-13T14:11:22.722Z,48.31
2018-07-13T14:13:50.468Z,46.35
2018-07-13T14:16:18.466Z,46.68
2018-07-13T14:18:45.762Z,47.99
2018-07-13T14:21:13.057Z,46.61
2018-07-13T14:23:41.125Z,46.96
2018-07-13T14:26:09.625Z,47.64
2018-07-13T14:28:37.193Z,46.31
2018-07-13T14:31:04.977Z,47.30
2018-07-13T14:33:32.282Z,47.66
2018-07-13T14:35:59.762Z,48.63
2018-07-13T14:38:27.200Z,47.40
2018-07-13T14:40:54.942Z,48.30
2018-07-13T14:43:22.375Z,48.57
2018-07-13T14:45:49.781Z,47.33
2018-07-13T14:48:17.139Z,48.38
2018-07-13T14:50:44.624Z,48.52
2018-07-13T14:53:12.019Z,48.80
2018-07-13T14:55:39.459Z,49.27
2018-07-13T14:58:06.711Z,48.75
2018-07-13T15:00:33.981Z,48.01
2018-07-13T15:03:01.266Z,47.79
2018-07-13T15:05:28.668Z,49.70
2018-07-13T15:07:55.995Z,49.72
2018-07-13T15:10:23.356Z,49.35
2018-07-13T15:12:50.689Z,48.49
2018-07-13T15:15:18.125Z,49.22
2018-07-13T15:17:45.659Z,49.82
2018-07-13T15:20:12.933Z,49.16
2018-07-13T15:22:40.332Z,49.76
2018-07-13T15:25:07.613Z,49.62
2018-07-13T15:27:34.942Z,50.59
2018-07-13T15:30:02.333Z,50.56
2018-07-13T15:32:29.574Z,51.31
2018-07-13T15:34:56.865Z,51.00
2018-07-13T15:37:24.232Z,51.03
2018-07-13T15:39:51.490Z,50.46
2018-07-13T15:42:18.755Z,51.52
2018-07-13T15:44:45.984Z,50.45
2018-07-13T15:47:13.910Z,51.31
2018-07-13T15:49:41.142Z,50.71
2018-07-13T15:52:08.399Z,50.75
2018-07-13T15:54:35.631Z,50.92
2018-07-13T15:57:02.902Z,51.02
2018-07-13T15:59:30.128Z,50.99
2018-07-13T16:01:57.365Z,51.42
2018-07-13T16:04:24.970Z,51.35
2018-07-13T16:06:52.334Z,51.44
2018-07-13T16:09:19.923Z,51.64
2018-07-13T16:11:47.659Z,51.29
2018-07-13T16:14:15.022Z,52.05
2018-07-13T16:16:42.360Z,51.95
2018-07-13T16:19:09.676Z,52.80
2018-07-13T16:21:36.986Z,53.57
2018-07-13T16:24:04.241Z,53.99
2018-07-13T16:26:31.537Z,54.36
2018-07-13T16:28:58.766Z,54.16
2018-07-13T16:31:26.065Z,54.36
2018-07-13T16:33:53.283Z,54.03
2018-07-13T16:36:20.597Z,54.64
2018-07-13T16:38:47.868Z,54.51
2018-07-13T16:41:15.202Z,54.56
2018-07-13T16:43:42.466Z,53.47
2018-07-13T16:46:09.760Z,54.28
2018-07-13T16:48:36.989Z,55.21
2018-07-13T16:51:04.236Z,53.80
2018-07-13T16:53:31.479Z,55.74
2018-07-13T16:55:58.677Z,54.51
2018-07-13T16:58:25.974Z,55.48
2018-07-13T17:00:53.277Z,56.11
2018-07-13T17:03:20.584Z,56.83
2018-07-13T17:05:48.174Z,56.72
2018-07-13T17:08:15.751Z,57.02
2018-07-13T17:10:43.136Z,55.97
2018-07-13T17:13:10.399Z,56.92
2018-07-13T17:15:37.611Z,57.86
2018-07-13T17:18:05.019Z,57.65
2018-07-13T17:20:32.466Z,58.28
2018-07-13T17:22:59.651Z,58.39
2018-07-13T17:25:26.917Z,58.96
2018-07-13T17:27:54.265Z,59.59
2018-07-13T17:30:21.560Z,58.62
2018-07-13T17:32:49.644Z,59.61
2018-07-13T17:35:16.948Z,59.80
2018-07-13T17:37:44.335Z,60.17
2018-07-13T17:40:11.663Z,60.99
2018-07-13T17:42:39.157Z,61.36
2018-07-13T17:45:06.536Z,60.32
2018-07-13T17:47:33.861Z,61.39
2018-07-13T17:50:01.199Z,61.01
2018-07-13T17:52:28.449Z,61.94
2018-07-13T17:54:55.755Z,61.83
2018-07-13T17:57:22.993Z,61.82
2018-07-13T17:59:50.316Z,62.50
2018-07-13T18:02:17.575Z,63.25
2018-07-13T18:04:44.818Z,63.91
2018-07-13T18:07:12.170Z,64.35
2018-07-13T18:09:39.540Z,63.57
2018-07-13T18:12:06.809Z,64.24
2018-07-13T18:14:34.064Z,65.65
2018-07-13T18:17:01.366Z,66.24
2018-07-13T18:22:02.512Z,64.85
2018-07-13T18:24:29.784Z,65.63
2018-07-13T18:26:57.138Z,64.89
2018-07-13T18:29:24.413Z,65.72
2018-07-13T18:31:51.651Z,66.62
2018-07-13T18:34:18.896Z,66.09
2018-07-13T18:36:46.112Z,67.83
2018-07-13T18:39:13.360Z,67.62
2018-07-13T18:41:40.738Z,68.11
2018-07-13T18:44:08.034Z,68.56
2018-07-13T18:46:35.262Z,67.96
2018-07-13T18:49:02.507Z,67.75
2018-07-13T18:51:29.770Z,68.32
2018-07-13T18:53:57.038Z,68.31
2018-07-13T18:56:24.289Z,68.37
2018-07-13T18:58:51.602Z,69.22
2018-07-13T19:01:18.878Z,69.79
2018-07-13T19:03:46.207Z,69.88
2018-07-13T19:06:13.464Z,69.31
2018-07-13T19:08:40.737Z,67.40
2018-07-13T19:11:08.117Z,69.98
2018-07-13T19:13:35.577Z,70.20
2018-07-13T19:16:02.829Z,70.08
2018-07-13T19:18:30.174Z,70.45
2018-07-13T19:20:57.464Z,69.86
2018-07-13T19:23:24.796Z,69.83
2018-07-13T19:25:52.157Z,71.04
2018-07-13T19:28:19.378Z,71.10
2018-07-13T19:30:46.801Z,71.94
2018-07-13T19:33:14.065Z,72.42
2018-07-13T19:35:41.336Z,72.85
2018-07-13T19:38:08.611Z,72.90
2018-07-13T19:40:35.913Z,71.67
2018-07-13T19:43:03.583Z,73.31
2018-07-13T19:45:30.980Z,72.55
2018-07-13T19:47:58.311Z,72.85
2018-07-13T19:50:25.757Z,73.49
2018-07-13T19:52:53.025Z,72.16
2018-07-13T19:55:20.338Z,72.44
2018-07-13T19:57:47.618Z,73.27
2018-07-13T20:00:15.349Z,73.28
2018-07-13T20:02:42.647Z,73.43
2018-07-13T20:05:09.920Z,72.70
2018-07-13T20:07:37.404Z,72.12
2018-07-13T20:10:04.650Z,72.59
2018-07-13T20:12:32.037Z,73.33
2018-07-13T20:14:59.887Z,73.14
2018-07-13T20:17:27.134Z,73.10
2018-07-13T20:19:54.365Z,73.79
2018-07-13T20:22:21.613Z,74.35
2018-07-13T20:24:48.902Z,74.68
2018-07-13T20:27:16.185Z,75.05
2018-07-13T20:29:43.378Z,74.60
2018-07-13T20:32:10.652Z,74.71
2018-07-13T20:34:38.008Z,74.34
2018-07-13T20:37:05.291Z,74.67
2018-07-13T20:39:32.657Z,74.23
2018-07-13T20:41:59.917Z,74.68
2018-07-13T20:44:27.156Z,74.31
2018-07-13T20:46:54.419Z,74.61
2018-07-13T20:49:22.437Z,74.47
2018-07-13T20:51:49.713Z,74.59
2018-07-13T20:54:17.045Z,73.88
2018-07-13T20:56:45.037Z,74.27
2018-07-13T20:59:12.331Z,74.92
2018-07-13T21:01:39.574Z,73.80
2018-07-13T21:04:07.002Z,74.50
2018-07-13T21:06:34.293Z,74.07
2018-07-13T21:09:01.596Z,74.89
2018-07-13T21:11:28.826Z,74.11
2018-07-13T21:13:56.093Z,74.45
2018-07-13T21:16:23.942Z,74.41
2018-07-13T21:18:51.202Z,74.04
2018-07-13T21:21:18.453Z,74.97
2018-07-13T21:23:45.827Z,74.45
2018-07-13T21:26:13.818Z,74.63
2018-07-13T21:28:41.137Z,73.91
2018-07-13T21:31:08.391Z,74.26
2018-07-13T21:33:35.940Z,74.19
2018-07-13T21:36:03.193Z,73.21
2018-07-13T21:38:30.506Z,74.03
2018-07-13T21:40:59.071Z,74.04
2018-07-13T21:43:26.491Z,74.82
2018-07-13T21:45:54.454Z,74.27
2018-07-13T21:48:21.734Z,74.47
2018-07-13T21:50:49.125Z,75.02
2018-07-13T21:53:17.045Z,74.61
2018-07-13T21:55:44.351Z,74.75
2018-07-13T21:58:12.012Z,74.65
2018-07-13T22:00:39.274Z,74.61
2018-07-13T22:03:06.623Z,74.27
2018-07-13T22:05:33.895Z,74.65
2018-07-13T22:08:01.153Z,75.65
2018-07-13T22:10:28.510Z,74.89
2018-07-13T22:12:55.769Z,73.90
2018-07-13T22:15:23.015Z,74.31
2018-07-13T22:17:50.256Z,74.77
2018-07-13T22:20:17.507Z,75.07
2018-07-13T22:22:44.790Z,74.46
2018-07-13T22:25:12.053Z,75.85
2018-07-13T22:27:39.292Z,75.73
2018-07-13T22:30:06.541Z,75.73
2018-07-13T22:32:33.995Z,75.04
2018-07-13T22:35:01.360Z,75.38
2018-07-13T22:37:28.652Z,75.66
2018-07-13T22:39:55.951Z,76.03
2018-07-13T22:42:23.202Z,76.59
2018-07-13T22:44:50.508Z,75.80
2018-07-13T22:47:17.833Z,75.83
2018-07-13T22:49:45.172Z,76.14
2018-07-13T22:52:12.396Z,75.18
2018-07-13T22:54:39.633Z,75.54
2018-07-13T22:57:06.928Z,75.17
2018-07-13T22:59:34.161Z,75.81
2018-07-13T23:02:01.395Z,74.90
2018-07-13T23:04:29.661Z,75.44
2018-07-13T23:06:56.913Z,75.37
2018-07-13T23:09:24.331Z,76.11
2018-07-13T23:11:51.815Z,75.97
2018-07-13T23:14:19.228Z,76.58
2018-07-13T23:16:46.526Z,75.38
2018-07-13T23:19:14.042Z,76.12
2018-07-13T23:21:41.452Z,76.24
2018-07-13T23:24:08.942Z,75.80
2018-07-13T23:26:36.281Z,76.17
2018-07-13T23:29:03.534Z,75.37
2018-07-13T23:31:31.017Z,76.06
2018-07-13T23:33:58.566Z,76.16
2018-07-13T23:36:25.873Z,76.01
2018-07-13T23:38:53.321Z,77.22
2018-07-13T23:41:20.566Z,76.59
2018-07-13T23:43:47.843Z,76.75
2018-07-13T23:46:15.368Z,76.77
2018-07-13T23:48:43.830Z,76.35
2018-07-13T23:51:12.214Z,77.22
2018-07-13T23:53:39.500Z,77.84
2018-07-13T23:56:06.818Z,77.26
2018-07-13T23:58:34.077Z,77.60
